Time;durP1;ratioP1;P1;durP2;ratioP2;P2;SDS_P1;SDS_P2;PMS_P1;PMS_P2;Temp;Humidity;BMP_temperature;BMP_pressure;BME280_temperature;BME280_humidity;BME280_pressure;Samples;Min_cycle;Max_cycle;Signal;HPM_P1;HPM_P2
2022/11/12 00:00:25;;;;;;;7.53;4.83;;;9.10;99.90;;;;;;4962807;28;20220;-80
2022/11/12 00:02:51;;;;;;;7.67;5.27;;;9.10;99.90;;;;;;4964475;28;20229;-80
2022/11/12 00:05:16;;;;;;;10.90;5.53;;;9.10;99.90;;;;;;4947832;28;20638;-80
2022/11/12 00:07:42;;;;;;;6.43;4.40;;;9.00;99.90;;;;;;4962503;28;20306;-80
2022/11/12 00:10:08;;;;;;;7.30;5.53;;;9.10;99.90;;;;;;4963224;28;20236;-81
2022/11/12 00:12:34;;;;;;;6.73;4.03;;;9.10;99.90;;;;;;4963156;28;20213;-80
2022/11/12 00:15:00;;;;;;;11.20;5.37;;;9.00;99.90;;;;;;4964478;28;20271;-80
2022/11/12 00:17:26;;;;;;;4.70;3.53;;;9.00;99.90;;;;;;4964944;28;20193;-80
2022/11/12 00:19:52;;;;;;;5.07;4.13;;;9.00;99.90;;;;;;4964351;28;20342;-80
2022/11/12 00:22:19;;;;;;;4.47;4.03;;;9.00;99.90;;;;;;4963822;28;20600;-80
2022/11/12 00:24:44;;;;;;;6.73;4.00;;;9.00;99.90;;;;;;4946825;28;20232;-81
2022/11/12 00:27:11;;;;;;;5.90;4.33;;;8.90;99.90;;;;;;4962921;28;20770;-80
2022/11/12 00:29:37;;;;;;;4.60;3.67;;;9.00;99.90;;;;;;4962290;28;20205;-81
2022/11/12 00:32:05;;;;;;;9.20;3.17;;;8.90;99.90;;;;;;4964599;28;20207;-80
2022/11/12 00:34:32;;;;;;;11.17;5.97;;;8.90;99.90;;;;;;4963725;28;20216;-80
2022/11/12 00:36:58;;;;;;;4.83;4.30;;;8.90;99.90;;;;;;4961861;28;20678;-80
2022/11/12 00:39:24;;;;;;;7.60;4.93;;;8.90;99.90;;;;;;4972832;28;20259;-80
2022/11/12 00:41:50;;;;;;;10.67;4.93;;;8.80;99.90;;;;;;4946083;28;20240;-80
2022/11/12 00:44:15;;;;;;;6.07;4.63;;;8.80;99.90;;;;;;4963055;28;20207;-80
2022/11/12 00:46:41;;;;;;;9.30;5.00;;;8.70;99.90;;;;;;4961766;28;20232;-80
2022/11/12 00:49:07;;;;;;;4.77;3.80;;;8.70;99.90;;;;;;4964145;28;20232;-80
2022/11/12 00:51:34;;;;;;;5.33;4.03;;;8.60;99.90;;;;;;4978122;28;21101;-80
2022/11/12 00:53:59;;;;;;;5.73;5.03;;;8.50;99.90;;;;;;4961444;28;20224;-80
2022/11/12 00:56:25;;;;;;;11.67;5.03;;;8.40;99.90;;;;;;4962843;28;20203;-80
2022/11/12 00:58:51;;;;;;;6.57;4.40;;;8.40;99.90;;;;;;4963664;28;21098;-79
2022/11/12 01:01:17;;;;;;;9.27;4.57;;;8.30;99.90;;;;;;4946507;28;20279;-82
2022/11/12 01:03:43;;;;;;;4.03;3.73;;;8.30;99.90;;;;;;4963082;28;20689;-79
2022/11/12 01:06:12;;;;;;;6.30;4.83;;;8.00;99.90;;;;;;4962382;28;20224;-81
2022/11/12 01:08:37;;;;;;;5.03;4.23;;;8.00;99.90;;;;;;4963282;28;20224;-81
2022/11/12 01:11:07;;;;;;;9.27;4.57;;;8.00;99.90;;;;;;4962476;28;20199;-79
2022/11/12 01:13:34;;;;;;;6.17;4.20;;;8.10;99.90;;;;;;4963513;28;20221;-80
2022/11/12 01:16:07;;;;;;;4.60;3.90;;;8.10;99.90;;;;;;4962817;28;20216;-81
2022/11/12 01:18:33;;;;;;;6.47;3.37;;;8.10;99.90;;;;;;4962800;28;20310;-80
2022/11/12 01:21:01;;;;;;;6.30;3.70;;;8.20;99.90;;;;;;4962466;28;20220;-80
2022/11/12 01:23:26;;;;;;;9.13;4.73;;;8.20;99.90;;;;;;4963414;28;20193;-80
2022/11/12 01:25:53;;;;;;;7.60;4.40;;;8.20;99.90;;;;;;4962801;28;20211;-80
2022/11/12 01:28:18;;;;;;;5.30;4.10;;;8.20;99.90;;;;;;4961993;28;20749;-80
2022/11/12 01:30:44;;;;;;;2.97;2.70;;;8.20;99.90;;;;;;4961796;28;20228;-80
2022/11/12 01:33:10;;;;;;;6.17;4.63;;;8.20;99.90;;;;;;4945335;28;20243;-81
2022/11/12 01:35:35;;;;;;;5.70;5.20;;;8.30;99.90;;;;;;4963015;28;21051;-80
2022/11/12 01:38:01;;;;;;;6.83;4.63;;;8.30;99.90;;;;;;4946371;28;20593;-80
2022/11/12 01:40:27;;;;;;;5.73;3.40;;;8.30;99.90;;;;;;4961403;28;20241;-79
2022/11/12 01:42:53;;;;;;;7.47;3.23;;;8.30;99.90;;;;;;4962671;28;20236;-80
2022/11/12 01:45:21;;;;;;;6.10;4.70;;;8.30;99.90;;;;;;4962319;28;20563;-80
2022/11/12 01:47:50;;;;;;;5.70;4.27;;;8.30;99.90;;;;;;4962130;28;20197;-80
2022/11/12 01:50:20;;;;;;;7.83;4.83;;;8.30;99.90;;;;;;4962948;28;20223;-80
2022/11/12 01:52:52;;;;;;;7.10;4.40;;;8.30;99.90;;;;;;4962448;28;20243;-80
2022/11/12 01:55:26;;;;;;;3.90;3.17;;;8.20;99.90;;;;;;4962668;28;20232;-80
2022/11/12 01:58:08;;;;;;;6.97;4.27;;;8.20;99.90;;;;;;4962325;28;20229;-81
2022/11/12 02:00:34;;;;;;;14.47;6.83;;;8.20;99.90;;;;;;4962350;28;20324;-80
2022/11/12 02:03:03;;;;;;;5.87;3.10;;;8.20;99.90;;;;;;4962801;28;20663;-80
2022/11/12 02:05:31;;;;;;;5.77;3.33;;;8.20;99.90;;;;;;4963107;28;20203;-80
2022/11/12 02:07:59;;;;;;;5.70;4.03;;;8.20;99.90;;;;;;4962809;28;20857;-81
2022/11/12 02:10:26;;;;;;;10.30;4.80;;;8.20;99.90;;;;;;4945210;28;20236;-80
2022/11/12 02:15:39;;;;;;;7.13;4.07;;;8.20;99.90;;;;;;4960936;28;20229;-81
2022/11/12 02:18:05;;;;;;;8.37;5.17;;;8.30;99.90;;;;;;4960869;28;20242;-79
2022/11/12 02:20:35;;;;;;;6.87;4.40;;;8.40;99.90;;;;;;4962069;28;20278;-80
2022/11/12 02:23:02;;;;;;;4.87;4.33;;;8.50;99.90;;;;;;4960518;28;21009;-79
2022/11/12 02:25:27;;;;;;;5.60;4.57;;;8.60;99.90;;;;;;4960960;28;20792;-80
2022/11/12 02:27:55;;;;;;;10.07;5.30;;;8.70;99.90;;;;;;4961584;28;20220;-80
2022/11/12 02:30:38;;;;;;;6.83;4.63;;;8.70;99.90;;;;;;4961794;28;20263;-80
2022/11/12 02:33:04;;;;;;;6.00;4.20;;;8.70;99.90;;;;;;4961661;28;20220;-79
2022/11/12 02:35:30;;;;;;;7.83;3.13;;;8.80;99.90;;;;;;4962930;28;20192;-80
2022/11/12 02:37:56;;;;;;;7.83;4.57;;;8.90;99.90;;;;;;4960099;28;20253;-79
2022/11/12 02:40:22;;;;;;;13.13;5.57;;;8.90;99.90;;;;;;4944314;28;20252;-80
2022/11/12 02:42:47;;;;;;;5.37;4.07;;;9.00;99.90;;;;;;4960424;28;20224;-80
2022/11/12 02:45:14;;;;;;;5.30;4.27;;;9.00;99.90;;;;;;4961140;28;20725;-80
2022/11/12 02:47:39;;;;;;;6.00;5.17;;;9.10;99.90;;;;;;4960999;28;20523;-81
2022/11/12 02:50:05;;;;;;;17.30;4.80;;;9.20;99.90;;;;;;4960973;28;20231;-80
2022/11/12 02:52:31;;;;;;;7.70;6.17;;;9.30;99.90;;;;;;4960923;28;20709;-80
2022/11/12 02:54:57;;;;;;;6.70;5.73;;;9.40;99.90;;;;;;4961533;28;20217;-80
2022/11/12 02:57:23;;;;;;;7.73;5.73;;;9.50;99.90;;;;;;4960572;28;20718;-80
2022/11/12 02:59:49;;;;;;;5.67;4.73;;;9.50;99.90;;;;;;4961539;28;20276;-79
2022/11/12 03:02:14;;;;;;;7.57;5.83;;;9.60;99.90;;;;;;4962835;28;20304;-80
2022/11/12 03:04:40;;;;;;;13.03;6.50;;;9.70;99.90;;;;;;4960566;28;20216;-80
2022/11/12 03:07:06;;;;;;;9.77;6.73;;;9.70;99.90;;;;;;4961520;28;20227;-80
2022/11/12 03:09:32;;;;;;;8.00;6.90;;;9.80;99.90;;;;;;4961954;28;20336;-80
2022/11/12 03:11:57;;;;;;;7.70;4.80;;;9.90;99.90;;;;;;4961652;28;20594;-80
2022/11/12 03:14:24;;;;;;;14.20;6.03;;;10.00;99.90;;;;;;4961942;28;20204;-81
2022/11/12 03:16:50;;;;;;;11.17;6.63;;;10.00;99.90;;;;;;4961992;28;20764;-80
2022/11/12 03:19:15;;;;;;;9.33;6.13;;;10.10;99.90;;;;;;4964591;28;20228;-79
2022/11/12 03:21:41;;;;;;;6.10;5.50;;;10.20;99.90;;;;;;4964102;28;20234;-81
2022/11/12 03:24:07;;;;;;;14.43;8.43;;;10.20;99.90;;;;;;4963426;28;20256;-80
2022/11/12 03:26:32;;;;;;;9.63;6.10;;;10.30;99.90;;;;;;4964384;28;20280;-80
2022/11/12 03:28:58;;;;;;;8.67;6.13;;;10.30;99.90;;;;;;4965479;28;20212;-80
2022/11/12 03:31:24;;;;;;;12.23;9.53;;;10.30;99.90;;;;;;4947468;28;20687;-79
2022/11/12 03:33:50;;;;;;;11.90;6.03;;;10.40;99.90;;;;;;4964913;28;20263;-79
2022/11/12 03:36:15;;;;;;;7.70;5.83;;;10.40;99.90;;;;;;4963301;28;20216;-80
2022/11/12 03:38:41;;;;;;;10.07;6.67;;;10.40;99.90;;;;;;4964768;28;20193;-80
2022/11/12 03:41:07;;;;;;;9.83;7.20;;;10.40;99.90;;;;;;4963398;28;20245;-79
2022/11/12 03:43:33;;;;;;;11.33;7.77;;;10.50;99.90;;;;;;4963281;28;20339;-80
2022/11/12 03:45:58;;;;;;;11.63;7.40;;;10.50;99.90;;;;;;4964773;28;20263;-80
2022/11/12 03:48:24;;;;;;;11.67;8.50;;;10.50;99.90;;;;;;4963152;28;20208;-80
2022/11/12 03:50:50;;;;;;;28.83;6.83;;;10.50;99.90;;;;;;4963949;28;20205;-80
2022/11/12 03:53:15;;;;;;;12.27;6.70;;;10.50;99.90;;;;;;4947431;28;20251;-80
2022/11/12 03:55:41;;;;;;;15.87;7.53;;;10.60;99.90;;;;;;4964208;28;20265;-81
2022/11/12 03:58:07;;;;;;;11.33;8.00;;;10.60;99.90;;;;;;4962814;28;20236;-79
2022/11/12 04:00:32;;;;;;;11.73;8.27;;;10.60;99.90;;;;;;4963292;28;20275;-81
2022/11/12 04:02:59;;;;;;;23.50;7.37;;;10.60;99.90;;;;;;4963202;28;20220;-80
2022/11/12 04:11:01;;;;;;;15.43;8.73;;;10.50;99.90;;;;;;4964108;28;20213;-80
2022/11/12 04:13:26;;;;;;;17.37;7.60;;;10.60;99.90;;;;;;4963927;28;21254;-80
2022/11/12 04:26:21;;;;;;;15.80;7.27;;;10.50;99.90;;;;;;4963990;28;20993;-80
2022/11/12 04:26:54;;;;;;;18.10;6.90;;;10.50;99.90;;;;;;4962664;28;20224;-80
2022/11/12 04:32:04;;;;;;;23.90;6.43;;;10.50;99.90;;;;;;4964041;28;20216;-80
2022/11/12 04:34:30;;;;;;;11.80;5.70;;;10.40;99.90;;;;;;4963559;28;20981;-80
2022/11/12 04:36:56;;;;;;;12.27;5.80;;;10.40;99.90;;;;;;4963770;28;20339;-80
2022/11/12 04:39:21;;;;;;;22.03;9.87;;;10.50;99.90;;;;;;4963617;28;20220;-80
2022/11/12 04:47:16;;;;;;;25.57;7.30;;;10.40;99.90;;;;;;4964769;28;20197;-80
2022/11/12 04:49:41;;;;;;;18.97;8.73;;;10.40;99.90;;;;;;4963596;28;20237;-80
2022/11/12 04:52:08;;;;;;;11.27;8.20;;;10.30;99.90;;;;;;4945973;28;20248;-79
2022/11/12 04:54:33;;;;;;;28.53;6.47;;;10.30;99.90;;;;;;4963643;28;20248;-79
2022/11/12 04:56:59;;;;;;;11.47;5.33;;;10.30;99.90;;;;;;4963184;28;20303;-80
2022/11/12 04:59:25;;;;;;;28.37;8.77;;;10.30;99.90;;;;;;4964023;28;20198;-80
2022/11/12 05:01:51;;;;;;;45.90;8.00;;;10.20;99.90;;;;;;4946257;28;20232;-81
2022/11/12 05:04:17;;;;;;;10.87;6.97;;;10.30;99.90;;;;;;4945455;28;20227;-80
2022/11/12 05:06:51;;;;;;;9.20;6.03;;;10.30;99.90;;;;;;4962104;28;20236;-81
2022/11/12 05:09:19;;;;;;;10.73;5.80;;;10.20;99.90;;;;;;4963493;28;20587;-80
2022/11/12 05:11:45;;;;;;;8.73;4.83;;;10.20;99.90;;;;;;4962613;28;20200;-80
2022/11/12 05:14:10;;;;;;;21.27;6.27;;;10.30;99.90;;;;;;4963518;28;20185;-80
2022/11/12 05:16:36;;;;;;;15.70;5.87;;;10.20;99.90;;;;;;4961699;28;20301;-80
2022/11/12 05:19:02;;;;;;;8.13;5.90;;;10.20;99.90;;;;;;4961524;28;20232;-81
2022/11/12 05:24:12;;;;;;;17.30;7.47;;;10.10;99.90;;;;;;4961540;28;20228;-81
2022/11/12 05:26:38;;;;;;;25.00;6.40;;;10.10;99.90;;;;;;4962859;28;20196;-80
2022/11/12 05:29:04;;;;;;;6.20;5.47;;;10.10;99.90;;;;;;4961727;28;20228;-80
2022/11/12 05:31:30;;;;;;;29.90;5.73;;;10.10;99.90;;;;;;4945509;28;20240;-79
2022/11/12 05:33:55;;;;;;;7.97;5.37;;;10.00;99.90;;;;;;4962462;28;20235;-79
2022/11/12 05:36:21;;;;;;;25.77;5.80;;;10.00;99.90;;;;;;4962540;28;21102;-80
2022/11/12 05:38:47;;;;;;;15.53;5.20;;;10.00;99.90;;;;;;4962190;28;20204;-79
2022/11/12 05:41:13;;;;;;;27.73;6.53;;;10.00;99.90;;;;;;4961986;28;20342;-79
2022/11/12 05:43:38;;;;;;;13.53;6.73;;;10.00;99.90;;;;;;4961307;28;20224;-79
2022/11/12 05:46:04;;;;;;;7.40;4.73;;;10.00;99.90;;;;;;4961359;28;20629;-80
2022/11/12 05:48:30;;;;;;;10.50;6.10;;;10.00;99.90;;;;;;4962538;28;20217;-80
2022/11/12 05:50:56;;;;;;;15.20;7.47;;;10.00;99.90;;;;;;4928729;28;20213;-80
2022/11/12 05:53:21;;;;;;;20.87;6.53;;;10.00;99.90;;;;;;4962929;28;20200;-80
2022/11/12 05:55:47;;;;;;;26.07;5.57;;;10.00;99.90;;;;;;4962479;28;20610;-80
2022/11/12 05:58:13;;;;;;;22.50;5.60;;;10.10;99.90;;;;;;4961634;28;20745;-79
2022/11/12 06:00:38;;;;;;;10.87;6.80;;;10.00;99.90;;;;;;4960381;28;20315;-79
2022/11/12 06:03:08;;;;;;;11.70;5.43;;;10.00;99.90;;;;;;4944400;28;20307;-79
2022/11/12 06:05:35;;;;;;;14.40;6.33;;;10.00;99.90;;;;;;4960593;28;20193;-79
2022/11/12 06:08:02;;;;;;;29.70;7.00;;;10.00;99.90;;;;;;4960939;28;20224;-79
2022/11/12 06:10:29;;;;;;;9.17;5.40;;;10.00;99.90;;;;;;4961066;28;20228;-81
2022/11/12 06:12:54;;;;;;;48.00;6.07;;;10.00;99.90;;;;;;4960789;28;20994;-79
2022/11/12 06:15:20;;;;;;;25.23;7.33;;;10.10;99.90;;;;;;4961391;28;20224;-79
2022/11/12 06:17:46;;;;;;;34.20;8.00;;;10.10;99.90;;;;;;4961115;28;20258;-81
2022/11/12 06:20:12;;;;;;;8.60;5.87;;;10.10;99.90;;;;;;4961435;28;20662;-79
2022/11/12 06:22:38;;;;;;;14.07;7.23;;;10.10;99.90;;;;;;4961022;28;20224;-80
2022/11/12 06:25:04;;;;;;;42.43;6.63;;;10.10;99.90;;;;;;4962349;28;20731;-79
2022/11/12 06:27:31;;;;;;;19.90;6.90;;;10.20;99.90;;;;;;4959654;28;20230;-80
2022/11/12 06:29:56;;;;;;;10.93;6.50;;;10.20;99.90;;;;;;4960623;28;20320;-80
2022/11/12 06:32:23;;;;;;;35.03;6.47;;;10.20;99.90;;;;;;4960934;28;20196;-80
2022/11/12 06:34:51;;;;;;;9.77;6.30;;;10.20;99.90;;;;;;4961814;28;21197;-79
2022/11/12 06:37:17;;;;;;;15.43;7.00;;;10.10;99.90;;;;;;4961597;28;20225;-80
2022/11/12 06:39:42;;;;;;;20.60;6.90;;;10.10;99.90;;;;;;4944410;28;20247;-79
2022/11/12 06:42:08;;;;;;;13.33;7.77;;;10.10;99.90;;;;;;4959702;28;20260;-79
2022/11/12 06:44:34;;;;;;;21.47;6.13;;;10.10;99.90;;;;;;4960679;28;20200;-80
2022/11/12 06:47:01;;;;;;;20.17;8.00;;;10.10;99.90;;;;;;4961384;28;20197;-81
2022/11/12 06:49:26;;;;;;;14.00;7.67;;;10.10;99.90;;;;;;4961240;28;20327;-80
2022/11/12 06:51:52;;;;;;;19.80;8.00;;;10.10;99.90;;;;;;4944693;28;20299;-80
2022/11/12 06:54:18;;;;;;;44.40;8.60;;;10.10;99.90;;;;;;4964864;28;20223;-80
2022/11/12 06:56:43;;;;;;;40.27;10.63;;;10.10;99.90;;;;;;4964353;28;20263;-80
2022/11/12 06:59:09;;;;;;;34.30;8.10;;;10.10;99.90;;;;;;4947705;28;20200;-80
2022/11/12 07:01:35;;;;;;;18.13;8.97;;;10.10;99.90;;;;;;4948299;28;20228;-80
2022/11/12 07:04:01;;;;;;;13.93;7.97;;;10.10;99.90;;;;;;4964083;28;20236;-78
2022/11/12 07:06:26;;;;;;;24.43;9.30;;;10.10;99.90;;;;;;4964147;28;20232;-80
2022/11/12 07:08:52;;;;;;;18.57;9.67;;;10.10;99.90;;;;;;4947780;28;20311;-80
2022/11/12 07:11:19;;;;;;;18.37;8.73;;;10.20;99.90;;;;;;4965620;28;20604;-81
2022/11/12 07:13:45;;;;;;;18.13;10.57;;;10.10;99.90;;;;;;4965064;28;20323;-81
2022/11/12 07:16:12;;;;;;;17.00;6.73;;;10.20;99.90;;;;;;4964575;28;20216;-78
2022/11/12 07:18:39;;;;;;;47.77;11.57;;;10.30;99.90;;;;;;4964050;28;20225;-79
2022/11/12 07:21:10;;;;;;;11.77;7.10;;;10.30;99.90;;;;;;4963076;28;20662;-78
2022/11/12 07:23:36;;;;;;;13.17;8.40;;;10.30;99.90;;;;;;4965451;28;20255;-78
2022/11/12 07:26:07;;;;;;;34.50;11.57;;;10.40;99.90;;;;;;4964527;28;20707;-77
2022/11/12 07:28:32;;;;;;;19.53;10.17;;;10.40;99.90;;;;;;4963719;28;20749;-79
2022/11/12 07:31:00;;;;;;;11.83;8.50;;;10.30;99.90;;;;;;4948530;28;20363;-78
2022/11/12 07:33:27;;;;;;;24.43;13.00;;;10.30;99.90;;;;;;4964120;28;20328;-78
2022/11/12 07:36:00;;;;;;;19.40;9.27;;;10.30;99.90;;;;;;4965130;28;20709;-78
2022/11/12 07:38:27;;;;;;;16.03;10.10;;;10.30;99.90;;;;;;4966110;28;20995;-78
2022/11/12 07:41:14;;;;;;;15.07;10.07;;;10.30;99.90;;;;;;4965625;28;20247;-79
2022/11/12 07:43:41;;;;;;;24.37;12.33;;;10.40;99.90;;;;;;4964301;28;20220;-81
2022/11/12 07:46:10;;;;;;;23.20;10.57;;;10.40;99.90;;;;;;4965094;28;20422;-81
2022/11/12 07:48:36;;;;;;;20.47;10.73;;;10.50;99.90;;;;;;4963900;28;20224;-81
2022/11/12 07:51:04;;;;;;;22.77;9.77;;;10.50;99.90;;;;;;4963603;28;20224;-79
2022/11/12 07:53:30;;;;;;;17.83;8.47;;;10.50;99.90;;;;;;4964968;28;20276;-81
2022/11/12 07:55:58;;;;;;;26.13;12.67;;;10.40;99.90;;;;;;4964513;28;20252;-80
2022/11/12 07:58:25;;;;;;;18.50;10.30;;;10.40;99.90;;;;;;4963210;28;20213;-79
2022/11/12 08:00:51;;;;;;;24.47;11.00;;;10.40;99.90;;;;;;4964983;28;20212;-78
2022/11/12 08:03:17;;;;;;;16.80;8.50;;;10.50;99.90;;;;;;4962348;28;20227;-79
2022/11/12 08:05:43;;;;;;;18.20;8.87;;;10.40;99.90;;;;;;4979356;28;20196;-78
2022/11/12 08:08:09;;;;;;;14.37;7.23;;;10.40;99.90;;;;;;4963127;28;20200;-81
2022/11/12 08:10:36;;;;;;;16.03;10.07;;;10.30;99.90;;;;;;4946249;28;20275;-81
2022/11/12 08:13:02;;;;;;;22.30;10.73;;;10.30;99.90;;;;;;4947538;28;20240;-81
2022/11/12 08:15:28;;;;;;;35.97;11.17;;;10.30;99.90;;;;;;4965162;28;20219;-79
2022/11/12 08:17:54;;;;;;;27.17;10.73;;;10.20;99.90;;;;;;4964091;28;20244;-80
2022/11/12 08:20:20;;;;;;;14.63;10.03;;;10.30;99.90;;;;;;4963902;28;20201;-80
2022/11/12 08:22:46;;;;;;;27.63;10.60;;;10.20;99.90;;;;;;4962968;28;20220;-80
2022/11/12 08:25:11;;;;;;;16.30;7.03;;;10.20;99.90;;;;;;4963389;28;20230;-80
2022/11/12 08:27:37;;;;;;;22.63;8.17;;;10.20;99.90;;;;;;4962825;28;20228;-80
2022/11/12 08:30:04;;;;;;;14.67;8.73;;;10.10;99.90;;;;;;4964253;28;20233;-79
2022/11/12 08:32:30;;;;;;;17.00;9.03;;;10.10;99.90;;;;;;4963744;28;20216;-80
2022/11/12 08:34:56;;;;;;;13.47;8.90;;;10.20;99.90;;;;;;4964190;28;20223;-79
2022/11/12 08:37:21;;;;;;;37.93;9.90;;;10.20;99.90;;;;;;4963602;28;20228;-79
2022/11/12 08:39:47;;;;;;;41.73;9.10;;;10.20;99.90;;;;;;4946238;28;20678;-79
2022/11/12 08:42:13;;;;;;;18.90;7.87;;;10.10;99.90;;;;;;4962942;28;20248;-79
2022/11/12 08:44:39;;;;;;;42.20;7.63;;;10.00;99.90;;;;;;4963938;28;20205;-80
2022/11/12 08:47:04;;;;;;;22.83;9.00;;;10.00;99.90;;;;;;4964297;28;20218;-79
2022/11/12 08:49:30;;;;;;;31.07;10.93;;;10.00;99.90;;;;;;4961886;28;20236;-79
2022/11/12 08:51:56;;;;;;;45.80;8.43;;;10.20;99.90;;;;;;4961670;28;20709;-78
2022/11/12 08:54:23;;;;;;;12.03;7.50;;;10.30;99.90;;;;;;4961208;28;20227;-79
2022/11/12 08:56:49;;;;;;;12.70;7.40;;;10.20;99.90;;;;;;4963036;28;20239;-80
2022/11/12 08:59:15;;;;;;;15.97;8.30;;;10.10;99.90;;;;;;4962462;28;21146;-79
2022/11/12 09:01:41;;;;;;;23.13;9.23;;;10.10;99.90;;;;;;4962079;28;20221;-79
2022/11/12 09:04:06;;;;;;;34.87;9.27;;;10.00;99.90;;;;;;4963305;28;20239;-79
2022/11/12 09:06:32;;;;;;;38.17;11.07;;;10.10;99.90;;;;;;4959418;28;20271;-79
2022/11/12 09:08:58;;;;;;;17.73;8.07;;;10.00;99.90;;;;;;4961088;28;20236;-80
2022/11/12 09:11:25;;;;;;;30.93;9.83;;;9.90;99.90;;;;;;4962019;28;20749;-79
2022/11/12 09:13:54;;;;;;;32.07;9.30;;;10.00;99.90;;;;;;4962061;28;20228;-79
2022/11/12 09:16:23;;;;;;;25.47;10.47;;;10.10;99.90;;;;;;4961189;28;20213;-79
2022/11/12 09:18:48;;;;;;;23.07;9.00;;;10.00;99.90;;;;;;4957355;28;20220;-79
2022/11/12 09:21:14;;;;;;;15.97;8.50;;;10.10;99.90;;;;;;4961288;28;20228;-79
2022/11/12 09:23:40;;;;;;;40.03;10.23;;;10.10;99.90;;;;;;4945373;28;20207;-80
2022/11/12 09:26:06;;;;;;;7.67;5.00;;;10.20;99.90;;;;;;4963079;28;20723;-79
2022/11/12 09:28:32;;;;;;;14.30;9.10;;;10.20;99.90;;;;;;4962167;28;20271;-78
2022/11/12 09:30:58;;;;;;;10.30;7.10;;;10.10;99.90;;;;;;4960398;28;20231;-79
2022/11/12 09:33:29;;;;;;;10.70;6.53;;;10.00;99.90;;;;;;4962150;28;20324;-81
2022/11/12 09:35:58;;;;;;;16.87;7.30;;;10.00;99.90;;;;;;4961142;28;20310;-78
2022/11/12 09:38:24;;;;;;;44.07;7.27;;;10.20;99.90;;;;;;4962089;28;20555;-80
2022/11/12 09:40:50;;;;;;;12.33;7.87;;;10.10;99.90;;;;;;4960216;28;20239;-80
2022/11/12 09:43:22;;;;;;;15.67;9.30;;;10.20;99.90;;;;;;4960275;28;20251;-79
2022/11/12 09:45:49;;;;;;;10.93;7.07;;;10.30;99.90;;;;;;4961981;28;20335;-79
2022/11/12 09:48:24;;;;;;;11.73;7.87;;;10.30;99.90;;;;;;4960860;28;20768;-79
2022/11/12 09:50:59;;;;;;;19.37;8.80;;;10.00;99.90;;;;;;4962197;28;20950;-79
2022/11/12 09:53:46;;;;;;;11.90;6.37;;;10.10;99.90;;;;;;4962986;28;20184;-80
2022/11/12 09:56:15;;;;;;;12.07;6.80;;;10.20;99.90;;;;;;4961997;28;21168;-80
2022/11/12 09:58:41;;;;;;;12.90;7.33;;;10.30;99.90;;;;;;4961422;28;21114;-79
2022/11/12 10:01:17;;;;;;;12.50;6.70;;;10.20;99.90;;;;;;4961947;28;20299;-79
2022/11/12 10:04:50;;;;;;;16.57;7.17;;;9.90;99.90;;;;;;4961669;28;20231;-79
2022/11/12 10:07:36;;;;;;;14.80;8.03;;;9.80;99.90;;;;;;4890038;29;20233;-80
2022/11/12 10:10:14;;;;;;;17.17;7.30;;;9.90;99.90;;;;;;4902220;29;20246;-79
2022/11/12 10:12:53;;;;;;;20.33;7.87;;;9.90;99.90;;;;;;4943439;28;20246;-79
2022/11/12 10:18:42;;;;;;;21.47;7.50;;;9.90;99.90;;;;;;4961020;28;20216;-79
2022/11/12 10:21:26;;;;;;;39.70;9.27;;;9.90;99.90;;;;;;4961833;28;20578;-80
2022/11/12 10:23:52;;;;;;;15.23;6.33;;;9.80;99.90;;;;;;4962041;28;20300;-79
2022/11/12 10:26:21;;;;;;;12.83;7.93;;;9.90;99.90;;;;;;4962172;28;20710;-79
2022/11/12 10:29:00;;;;;;;15.20;7.10;;;10.00;99.90;;;;;;4965124;28;20216;-79
2022/11/12 10:31:26;;;;;;;24.40;15.57;;;9.70;99.90;;;;;;4964926;28;20216;-79
2022/11/12 10:34:17;;;;;;;14.73;9.03;;;9.80;99.90;;;;;;4965528;28;20686;-79
2022/11/12 10:36:49;;;;;;;9.57;6.27;;;9.90;99.90;;;;;;4964517;28;20228;-79
2022/11/12 10:39:40;;;;;;;16.53;7.60;;;9.90;99.90;;;;;;4965212;28;20339;-80
2022/11/12 10:42:12;;;;;;;18.40;13.23;;;10.00;99.90;;;;;;4964142;28;20233;-79
2022/11/12 10:44:39;;;;;;;15.10;7.80;;;10.00;99.90;;;;;;4964626;28;20225;-79
2022/11/12 10:47:41;;;;;;;21.73;9.77;;;9.90;99.90;;;;;;4966442;28;20339;-79
2022/11/12 10:50:07;;;;;;;46.73;9.50;;;9.80;99.90;;;;;;4966136;28;20327;-79
2022/11/12 10:52:33;;;;;;;51.43;9.30;;;9.90;99.90;;;;;;4965266;28;20333;-79
2022/11/12 10:55:19;;;;;;;21.03;5.67;;;9.90;99.90;;;;;;4965384;28;20709;-78
2022/11/12 10:57:45;;;;;;;10.27;6.37;;;9.70;99.90;;;;;;4964860;28;20346;-79
2022/11/12 11:00:14;;;;;;;8.10;5.80;;;9.60;99.90;;;;;;4966151;28;20299;-80
2022/11/12 11:02:53;;;;;;;6.13;4.53;;;9.40;99.90;;;;;;4966393;28;20199;-79
2022/11/12 11:05:30;;;;;;;13.17;7.83;;;9.40;99.90;;;;;;4966768;28;20189;-79
2022/11/12 11:07:56;;;;;;;15.90;5.73;;;9.40;99.90;;;;;;4964607;28;20220;-80
2022/11/12 11:10:28;;;;;;;13.93;6.70;;;9.60;99.90;;;;;;4963351;28;20318;-79
2022/11/12 11:13:20;;;;;;;11.87;5.80;;;9.50;99.90;;;;;;4965435;28;20278;-80
2022/11/12 11:16:01;;;;;;;9.47;5.43;;;9.50;99.90;;;;;;4964380;28;20617;-78
2022/11/12 11:18:28;;;;;;;11.77;7.13;;;9.50;99.90;;;;;;4964034;28;20299;-79
2022/11/12 11:21:16;;;;;;;17.13;6.47;;;9.50;99.90;;;;;;4964293;28;20228;-79
2022/11/12 11:23:54;;;;;;;12.50;6.97;;;9.40;99.90;;;;;;4963436;28;20617;-79
2022/11/12 11:27:00;;;;;;;8.80;5.43;;;9.50;99.90;;;;;;4965345;28;20626;-80
2022/11/12 11:29:53;;;;;;;10.53;6.63;;;9.50;99.90;;;;;;4888411;29;20234;-79
2022/11/12 11:32:19;;;;;;;12.53;6.07;;;9.70;99.90;;;;;;4965140;28;20192;-79
2022/11/12 11:35:06;;;;;;;9.60;6.77;;;9.60;99.90;;;;;;4965176;28;20233;-79
2022/11/12 11:37:45;;;;;;;19.83;5.70;;;9.40;99.90;;;;;;4965245;28;20576;-79
2022/11/12 11:40:37;;;;;;;16.43;6.00;;;9.50;99.90;;;;;;4964198;28;20232;-80
2022/11/12 11:43:45;;;;;;;9.73;6.40;;;9.50;99.90;;;;;;4963535;28;20240;-80
2022/11/12 11:46:15;;;;;;;3.93;3.53;;;9.20;99.90;;;;;;4964918;28;20220;-80
2022/11/12 11:49:20;;;;;;;8.40;4.73;;;9.30;99.90;;;;;;4965303;28;20220;-79
2022/11/12 11:52:25;;;;;;;12.63;5.67;;;9.20;99.90;;;;;;4963995;28;20228;-80
2022/11/12 11:55:15;;;;;;;13.77;7.80;;;9.30;99.90;;;;;;4948091;28;20236;-80
2022/11/12 11:58:07;;;;;;;17.33;8.00;;;9.50;99.90;;;;;;4965537;28;20225;-80
2022/11/12 12:00:42;;;;;;;10.73;6.80;;;9.60;99.90;;;;;;4965182;28;20224;-81
2022/11/12 12:03:18;;;;;;;12.17;8.47;;;9.50;99.90;;;;;;4965575;28;20298;-80
2022/11/12 12:05:52;;;;;;;12.30;8.33;;;9.50;99.90;;;;;;4965898;28;20189;-80
2022/11/12 12:08:24;;;;;;;12.97;6.67;;;9.50;99.90;;;;;;4964218;28;20203;-81
2022/11/12 12:11:00;;;;;;;16.90;9.33;;;9.70;99.90;;;;;;4965672;28;20232;-80
2022/11/12 12:13:55;;;;;;;12.87;5.53;;;9.80;99.90;;;;;;4965239;28;20716;-85
2022/11/12 12:16:35;;;;;;;15.47;7.37;;;9.80;99.90;;;;;;4963917;28;20228;-80
2022/11/12 12:19:22;;;;;;;11.17;7.80;;;9.90;99.90;;;;;;4965514;28;20773;-80
2022/11/12 12:21:51;;;;;;;16.77;10.60;;;9.90;99.90;;;;;;4963998;28;20311;-80
2022/11/12 12:24:26;;;;;;;14.77;9.67;;;10.00;99.90;;;;;;4965556;28;20615;-81
2022/11/12 12:27:02;;;;;;;13.60;8.23;;;10.00;99.90;;;;;;4965451;28;20220;-80
2022/11/12 12:29:48;;;;;;;12.93;8.87;;;10.00;99.90;;;;;;4963786;28;20248;-81
2022/11/12 12:32:28;;;;;;;17.00;9.00;;;9.90;99.90;;;;;;4963826;28;20707;-80
2022/11/12 12:35:14;;;;;;;23.57;9.00;;;10.00;99.90;;;;;;4964080;28;21016;-80
2022/11/12 12:38:09;;;;;;;20.70;7.87;;;10.00;99.90;;;;;;4964467;28;20745;-81
2022/11/12 12:41:00;;;;;;;17.20;8.43;;;10.00;99.90;;;;;;4964294;28;20235;-81
2022/11/12 12:43:42;;;;;;;18.70;9.07;;;10.00;99.90;;;;;;4964028;28;20720;-81
2022/11/12 12:46:11;;;;;;;24.47;11.70;;;10.10;99.90;;;;;;4962923;28;20641;-80
2022/11/12 12:48:41;;;;;;;23.83;9.50;;;10.20;99.90;;;;;;4964061;28;20303;-81
2022/11/12 12:51:07;;;;;;;21.53;10.90;;;10.30;99.90;;;;;;4962795;28;20322;-80
2022/11/12 12:53:35;;;;;;;20.00;9.97;;;10.50;99.90;;;;;;4963964;28;21037;-81
2022/11/12 12:56:04;;;;;;;24.23;12.10;;;10.50;99.90;;;;;;4964917;28;20562;-82
2022/11/12 12:58:48;;;;;;;16.73;9.23;;;10.50;99.90;;;;;;4963719;28;20220;-80
2022/11/12 13:01:20;;;;;;;20.47;10.77;;;10.60;99.90;;;;;;4962769;28;20220;-80
2022/11/12 13:04:03;;;;;;;20.90;11.00;;;10.80;99.90;;;;;;4963573;28;20304;-80
2022/11/12 13:06:34;;;;;;;24.43;13.73;;;10.90;99.90;;;;;;4962886;28;20216;-80
2022/11/12 13:09:19;;;;;;;17.37;10.50;;;10.90;99.90;;;;;;4963244;28;20220;-80
2022/11/12 13:14:30;;;;;;;20.87;13.70;;;11.10;99.90;;;;;;4963726;28;20196;-80
2022/11/12 13:17:02;;;;;;;21.83;13.17;;;11.20;99.90;;;;;;4961818;28;20547;-81
2022/11/12 13:19:42;;;;;;;22.90;14.60;;;11.10;99.90;;;;;;4962566;28;20648;-81
2022/11/12 13:22:17;;;;;;;23.33;12.53;;;11.20;99.90;;;;;;4962788;28;20315;-80
2022/11/12 13:25:07;;;;;;;17.33;10.60;;;11.30;99.90;;;;;;4962911;28;20672;-80
2022/11/12 13:27:39;;;;;;;21.83;13.10;;;11.30;99.90;;;;;;4963129;28;20259;-81
2022/11/12 13:30:28;;;;;;;24.37;13.40;;;11.30;99.90;;;;;;4963446;28;20233;-80